createdAt,value
2024-03-08T00:00:20.797Z,74.96
2024-03-08T00:02:49.061Z,73.54
2024-03-08T00:05:16.788Z,72.50
2024-03-08T00:07:44.984Z,68.72
2024-03-08T00:10:15.579Z,69.77
2024-03-08T00:12:46.083Z,69.00
2024-03-08T00:15:19.735Z,68.84
2024-03-08T00:17:48.734Z,68.46
2024-03-08T00:20:20.001Z,69.63
2024-03-08T00:22:47.730Z,69.51
2024-03-08T00:25:14.842Z,68.91
2024-03-08T00:27:42.576Z,69.66
2024-03-08T00:30:10.166Z,71.24
2024-03-08T00:32:38.854Z,70.14
2024-03-08T00:35:09.112Z,69.54
2024-03-08T00:37:36.548Z,70.33
2024-03-08T00:40:04.100Z,71.29
2024-03-08T00:42:31.103Z,71.31
2024-03-08T00:44:59.918Z,71.69
2024-03-08T00:47:27.050Z,71.66
2024-03-08T00:49:54.765Z,72.11
2024-03-08T00:52:21.883Z,68.04
2024-03-08T00:54:48.869Z,69.66
2024-03-08T00:57:15.885Z,69.40
2024-03-08T00:59:43.193Z,68.84
2024-03-08T01:02:10.544Z,70.44
2024-03-08T01:04:37.604Z,71.26
2024-03-08T01:07:04.640Z,71.38
2024-03-08T01:09:31.592Z,70.99
2024-03-08T01:11:58.782Z,69.95
2024-03-08T01:14:32.819Z,69.35
2024-03-08T01:17:00.302Z,68.28
2024-03-08T01:19:27.377Z,68.84
2024-03-08T01:21:54.283Z,68.74
2024-03-08T01:24:21.229Z,67.34
2024-03-08T01:26:48.942Z,66.67
2024-03-08T01:29:16.037Z,67.46
2024-03-08T01:31:42.981Z,69.54
2024-03-08T01:34:10.200Z,70.09
2024-03-08T01:36:38.709Z,69.33
2024-03-08T01:39:09.946Z,68.35
2024-03-08T01:41:37.311Z,68.32
2024-03-08T01:44:05.118Z,67.61
2024-03-08T01:46:32.915Z,68.11
2024-03-08T01:49:02.609Z,68.27
2024-03-08T01:51:30.912Z,65.10
2024-03-08T01:54:01.635Z,64.82
2024-03-08T01:56:28.626Z,65.07
2024-03-08T01:58:56.425Z,66.07
2024-03-08T02:01:23.506Z,67.93
2024-03-08T02:03:51.021Z,68.46
2024-03-08T02:06:18.754Z,68.41
2024-03-08T02:08:46.535Z,69.20
2024-03-08T02:11:14.741Z,70.00
2024-03-08T02:13:41.732Z,69.92
2024-03-08T02:16:10.031Z,70.54
2024-03-08T02:18:38.607Z,69.72
2024-03-08T02:21:07.534Z,70.22
2024-03-08T02:23:35.134Z,70.67
2024-03-08T02:26:02.514Z,70.60
2024-03-08T02:28:32.365Z,70.25
2024-03-08T02:30:59.467Z,70.33
2024-03-08T02:33:28.589Z,71.18
2024-03-08T02:35:56.994Z,68.69
2024-03-08T02:38:26.375Z,69.16
2024-03-08T02:40:55.324Z,67.28
2024-03-08T02:43:24.169Z,67.12
2024-03-08T02:45:51.541Z,70.39
2024-03-08T02:48:18.717Z,72.43
2024-03-08T02:50:46.848Z,72.19
2024-03-08T02:53:15.128Z,72.97
2024-03-08T02:55:43.293Z,71.88
2024-03-08T02:58:11.888Z,72.19
2024-03-08T03:00:42.982Z,70.93
2024-03-08T03:03:10.432Z,70.03
2024-03-08T03:05:37.814Z,69.33
2024-03-08T03:08:11.065Z,69.90
2024-03-08T03:10:38.589Z,70.94
2024-03-08T03:13:10.078Z,69.65
2024-03-08T03:15:38.227Z,70.03
2024-03-08T03:18:07.168Z,69.57
2024-03-08T03:20:34.654Z,70.00
2024-03-08T03:23:04.972Z,71.39
2024-03-08T03:25:36.787Z,71.96
2024-03-08T03:28:04.475Z,71.81
2024-03-08T03:30:34.934Z,71.71
2024-03-08T03:33:02.672Z,72.01
2024-03-08T03:35:30.882Z,73.15
2024-03-08T03:38:11.134Z,72.67
2024-03-08T03:40:40.683Z,72.54
2024-03-08T03:43:07.902Z,72.99
2024-03-08T03:45:38.373Z,72.68
2024-03-08T03:48:08.578Z,72.86
2024-03-08T03:50:36.718Z,70.97
2024-03-08T03:53:05.198Z,71.03
2024-03-08T03:55:32.111Z,71.37
2024-03-08T03:58:00.658Z,71.40
2024-03-08T04:00:28.727Z,72.28
2024-03-08T04:02:56.461Z,73.63
2024-03-08T04:05:23.564Z,72.71
2024-03-08T04:07:50.512Z,71.20
2024-03-08T04:10:17.492Z,70.64
2024-03-08T04:12:44.496Z,70.56
2024-03-08T04:15:12.774Z,71.25
2024-03-08T04:17:40.281Z,70.82
2024-03-08T04:20:16.461Z,70.21
2024-03-08T04:22:45.998Z,71.77
2024-03-08T04:25:13.143Z,71.28
2024-03-08T04:27:40.177Z,71.06
2024-03-08T04:30:09.586Z,72.13
2024-03-08T04:32:37.008Z,71.13
2024-03-08T04:35:05.019Z,70.06
2024-03-08T04:37:32.545Z,71.52
2024-03-08T04:39:59.920Z,72.06
2024-03-08T04:42:31.508Z,70.66
2024-03-08T04:44:59.378Z,71.33
2024-03-08T04:47:26.962Z,72.67
2024-03-08T04:49:54.620Z,72.78
2024-03-08T04:52:21.687Z,71.43
2024-03-08T04:54:48.607Z,69.96
2024-03-08T04:57:15.941Z,70.79
2024-03-08T04:59:42.977Z,71.11
2024-03-08T05:02:09.901Z,71.40
2024-03-08T05:04:37.327Z,72.41
2024-03-08T05:07:05.324Z,73.65
2024-03-08T05:09:33.595Z,74.30
2024-03-08T05:12:00.795Z,74.34
2024-03-08T05:14:27.988Z,73.61
2024-03-08T05:16:54.967Z,73.45
2024-03-08T05:19:22.525Z,72.49
2024-03-08T05:21:51.369Z,70.66
2024-03-08T05:24:19.679Z,71.02
2024-03-08T05:26:48.084Z,69.20
2024-03-08T05:29:16.210Z,68.67
2024-03-08T05:31:50.316Z,68.11
2024-03-08T05:34:18.475Z,69.57
2024-03-08T05:36:46.326Z,70.86
2024-03-08T05:39:17.416Z,71.39
2024-03-08T05:41:45.463Z,70.15
2024-03-08T05:44:12.724Z,69.12
2024-03-08T05:46:39.787Z,67.85
2024-03-08T05:49:08.608Z,67.88
2024-03-08T05:51:37.047Z,70.88
2024-03-08T05:54:12.182Z,69.59
2024-03-08T05:56:43.754Z,68.79
2024-03-08T05:59:11.624Z,67.96
2024-03-08T06:01:39.408Z,66.64
2024-03-08T06:04:06.330Z,65.21
2024-03-08T06:06:33.494Z,66.15
2024-03-08T06:09:00.988Z,65.58
2024-03-08T06:11:29.956Z,63.65
2024-03-08T06:14:01.637Z,63.15
2024-03-08T06:16:31.549Z,60.11
2024-03-08T06:18:59.202Z,59.62
2024-03-08T06:21:29.227Z,61.86
2024-03-08T06:23:56.705Z,63.13
2024-03-08T06:26:23.689Z,63.19
2024-03-08T06:28:50.726Z,62.28
2024-03-08T06:31:18.083Z,61.85
2024-03-08T06:33:45.161Z,61.41
2024-03-08T06:36:13.535Z,60.71
2024-03-08T06:38:44.173Z,59.83
2024-03-08T06:41:16.753Z,58.50
2024-03-08T06:43:48.355Z,58.66
2024-03-08T06:46:18.752Z,57.71
2024-03-08T06:48:47.729Z,55.63
2024-03-08T06:51:16.179Z,53.06
2024-03-08T06:53:43.327Z,52.88
2024-03-08T06:56:10.380Z,53.75
2024-03-08T06:58:37.470Z,53.68
2024-03-08T07:01:09.351Z,53.07
2024-03-08T07:03:36.886Z,53.64
2024-03-08T07:06:04.926Z,53.44
2024-03-08T07:08:32.132Z,52.36
2024-03-08T07:11:00.339Z,52.62
2024-03-08T07:13:30.182Z,50.85
2024-03-08T07:15:57.548Z,51.51
2024-03-08T07:18:24.792Z,52.96
2024-03-08T07:20:52.310Z,52.78
2024-03-08T07:23:37.890Z,50.26
2024-03-08T07:26:05.307Z,49.92
2024-03-08T07:28:32.356Z,49.15
2024-03-08T07:31:23.415Z,49.49
2024-03-08T07:33:52.147Z,50.65
2024-03-08T07:36:19.274Z,49.77
2024-03-08T07:38:48.470Z,50.06
2024-03-08T07:41:16.926Z,49.41
2024-03-08T07:43:44.024Z,49.22
2024-03-08T07:46:14.724Z,48.95
2024-03-08T07:48:41.996Z,48.82
2024-03-08T07:51:11.063Z,48.48
2024-03-08T07:53:39.553Z,47.08
2024-03-08T07:56:06.950Z,48.79
2024-03-08T07:58:35.747Z,46.73
2024-03-08T08:01:03.655Z,49.04
2024-03-08T08:03:30.794Z,46.50
2024-03-08T08:05:57.763Z,46.42
2024-03-08T08:08:25.741Z,47.81
2024-03-08T08:10:52.855Z,47.42
2024-03-08T08:13:19.862Z,47.20
2024-03-08T08:15:47.277Z,46.09
2024-03-08T08:18:15.574Z,47.25
2024-03-08T08:20:42.605Z,48.14
2024-03-08T08:23:10.346Z,47.30
2024-03-08T08:25:37.316Z,46.56
2024-03-08T08:28:05.915Z,48.18
2024-03-08T08:30:34.727Z,47.85
2024-03-08T08:33:02.344Z,44.25
2024-03-08T08:35:30.316Z,46.01
2024-03-08T08:37:57.456Z,42.79
2024-03-08T08:40:25.655Z,42.49
2024-03-08T08:42:58.861Z,45.60
2024-03-08T08:45:27.101Z,44.38
2024-03-08T08:47:56.221Z,44.10
2024-03-08T08:50:28.128Z,45.65
2024-03-08T08:52:55.047Z,37.90
2024-03-08T08:55:22.999Z,42.91
2024-03-08T08:57:50.619Z,42.12
2024-03-08T09:00:17.941Z,42.03
2024-03-08T09:02:45.036Z,39.96
2024-03-08T09:05:13.328Z,38.47
2024-03-08T09:07:40.689Z,38.13
2024-03-08T09:12:41.219Z,39.95
2024-03-08T09:15:13.224Z,39.95
2024-03-08T09:17:45.905Z,40.15
2024-03-08T09:20:16.713Z,40.54
2024-03-08T09:22:47.810Z,39.94
2024-03-08T09:25:15.082Z,39.92
2024-03-08T09:27:42.621Z,39.98
2024-03-08T09:30:10.071Z,39.55
2024-03-08T09:32:38.713Z,38.58
2024-03-08T09:35:09.110Z,38.91
2024-03-08T09:37:36.785Z,37.81
2024-03-08T09:40:06.300Z,39.78
2024-03-08T09:42:33.326Z,39.28
2024-03-08T09:45:00.469Z,40.17
2024-03-08T09:47:35.138Z,39.83
2024-03-08T09:50:02.905Z,38.19
2024-03-08T09:52:32.414Z,38.70
2024-03-08T09:54:59.550Z,39.34
2024-03-08T09:57:27.331Z,38.90
2024-03-08T09:59:54.370Z,40.12
2024-03-08T10:02:22.732Z,41.92
2024-03-08T10:04:50.169Z,38.50
2024-03-08T10:07:17.372Z,40.28
2024-03-08T10:09:51.063Z,41.27
2024-03-08T10:12:18.845Z,42.13
2024-03-08T10:14:46.057Z,39.74
2024-03-08T10:17:13.126Z,38.39
2024-03-08T10:19:40.598Z,43.32
2024-03-08T10:22:08.246Z,41.55
2024-03-08T10:24:37.452Z,43.36
2024-03-08T10:27:06.104Z,41.44
2024-03-08T10:29:33.901Z,42.93
2024-03-08T10:32:01.147Z,43.29
2024-03-08T10:34:28.380Z,44.84
2024-03-08T10:37:04.147Z,42.20
2024-03-08T10:39:36.904Z,41.96
2024-03-08T10:42:06.154Z,42.41
2024-03-08T10:44:52.191Z,42.62
2024-03-08T10:47:23.400Z,43.32
2024-03-08T10:50:05.811Z,42.87
2024-03-08T10:52:33.534Z,43.84
2024-03-08T10:55:01.361Z,42.42
2024-03-08T10:57:28.791Z,42.38
2024-03-08T10:59:59.431Z,41.49
2024-03-08T11:02:28.735Z,41.00
2024-03-08T11:04:58.326Z,41.88
2024-03-08T11:07:29.135Z,42.34
2024-03-08T11:09:57.931Z,43.58
2024-03-08T11:12:30.920Z,41.99
2024-03-08T11:15:02.519Z,41.89
2024-03-08T11:17:29.519Z,39.84
2024-03-08T11:19:58.058Z,41.72
2024-03-08T11:22:30.951Z,41.13
2024-03-08T11:25:03.750Z,42.87
2024-03-08T11:27:35.303Z,40.01
2024-03-08T11:30:25.654Z,41.47
2024-03-08T11:32:54.331Z,41.96
2024-03-08T11:35:24.813Z,43.14
2024-03-08T11:37:52.511Z,41.74
2024-03-08T11:40:21.603Z,40.05
2024-03-08T11:42:53.269Z,41.36
2024-03-08T11:45:22.923Z,42.45
2024-03-08T11:47:51.014Z,42.24
2024-03-08T11:50:20.611Z,39.69
2024-03-08T11:52:48.263Z,39.34
2024-03-08T11:55:15.688Z,39.78
2024-03-08T11:57:43.947Z,40.19
2024-03-08T12:00:27.790Z,40.51
2024-03-08T12:03:08.473Z,39.47
2024-03-08T12:05:35.825Z,38.09
2024-03-08T12:08:04.171Z,38.08
2024-03-08T12:10:31.420Z,39.10
2024-03-08T12:13:01.352Z,40.57
2024-03-08T12:15:29.967Z,38.70
2024-03-08T12:17:57.845Z,41.85
2024-03-08T12:20:35.707Z,40.23
2024-03-08T12:23:03.828Z,43.49
2024-03-08T12:25:37.939Z,40.95
2024-03-08T12:28:16.293Z,42.04
2024-03-08T12:30:52.461Z,42.20
2024-03-08T12:33:19.521Z,43.54
2024-03-08T12:35:57.480Z,43.20
2024-03-08T12:38:28.018Z,42.05
2024-03-08T12:41:02.689Z,42.67
2024-03-08T12:43:33.546Z,44.06
2024-03-08T12:46:00.949Z,42.71
2024-03-08T12:48:28.000Z,44.18
2024-03-08T12:50:56.336Z,43.05
2024-03-08T12:53:24.788Z,42.15
2024-03-08T12:55:52.173Z,42.28
2024-03-08T12:58:21.675Z,44.04
2024-03-08T13:00:54.095Z,45.07
2024-03-08T13:03:22.352Z,44.60
2024-03-08T13:05:50.097Z,44.79
2024-03-08T13:08:21.961Z,44.35
2024-03-08T13:10:49.205Z,45.22
2024-03-08T13:13:19.006Z,45.86
2024-03-08T13:15:46.751Z,44.22
2024-03-08T13:18:14.144Z,44.53
2024-03-08T13:20:46.876Z,46.10
2024-03-08T13:23:15.753Z,45.80
2024-03-08T13:25:42.973Z,45.29
2024-03-08T13:28:10.519Z,45.98
2024-03-08T13:30:37.698Z,44.93
2024-03-08T13:33:08.865Z,46.97
2024-03-08T13:35:36.265Z,44.85
2024-03-08T13:38:06.254Z,45.40
2024-03-08T13:40:33.382Z,45.25
2024-03-08T13:43:02.709Z,44.56
2024-03-08T13:45:29.838Z,45.47
2024-03-08T13:47:57.745Z,44.26
2024-03-08T13:50:25.096Z,43.87
2024-03-08T13:52:56.595Z,44.14
2024-03-08T13:55:27.286Z,45.15
2024-03-08T13:57:54.770Z,45.02
2024-03-08T14:00:28.738Z,45.05
2024-03-08T14:02:55.685Z,44.16
2024-03-08T14:05:22.866Z,45.68
2024-03-08T14:07:51.765Z,45.64
2024-03-08T14:10:24.345Z,45.21
2024-03-08T14:12:52.862Z,45.39
2024-03-08T14:15:19.865Z,44.18
2024-03-08T14:17:48.572Z,45.95
2024-03-08T14:20:16.080Z,44.87
2024-03-08T14:22:44.763Z,45.92
2024-03-08T14:25:19.133Z,44.72
2024-03-08T14:27:47.850Z,44.66
2024-03-08T14:30:15.093Z,46.21
2024-03-08T14:32:43.201Z,48.28
2024-03-08T14:35:12.698Z,45.22
2024-03-08T14:37:39.977Z,46.32
2024-03-08T14:40:10.080Z,45.95
2024-03-08T14:42:37.116Z,45.92
2024-03-08T14:45:05.322Z,45.64
2024-03-08T14:47:32.527Z,45.61
2024-03-08T14:49:59.488Z,46.42
2024-03-08T14:52:29.372Z,45.78
2024-03-08T14:54:57.445Z,45.79
2024-03-08T14:57:24.566Z,45.26
2024-03-08T14:59:51.733Z,44.63
2024-03-08T15:02:20.758Z,45.97
2024-03-08T15:04:58.916Z,44.23
2024-03-08T15:07:32.393Z,44.72
2024-03-08T15:09:59.505Z,46.94
2024-03-08T15:12:27.694Z,45.68
2024-03-08T15:14:56.710Z,44.75
2024-03-08T15:17:24.430Z,44.29
2024-03-08T15:19:51.978Z,44.26
2024-03-08T15:22:19.405Z,44.42
2024-03-08T15:24:46.677Z,43.98
2024-03-08T15:27:14.403Z,43.95
2024-03-08T15:29:41.323Z,44.52
2024-03-08T15:32:11.360Z,42.89
2024-03-08T15:34:40.233Z,44.22
2024-03-08T15:37:08.353Z,45.61
2024-03-08T15:39:35.492Z,45.00
2024-03-08T15:42:02.550Z,45.70
2024-03-08T15:44:30.138Z,46.63
2024-03-08T15:46:57.596Z,46.44
2024-03-08T15:49:28.142Z,47.10
2024-03-08T15:51:55.295Z,48.00
2024-03-08T15:54:22.873Z,47.95
2024-03-08T15:56:50.690Z,48.72
2024-03-08T15:59:18.163Z,49.06
2024-03-08T16:01:53.206Z,49.66
2024-03-08T16:04:22.280Z,50.51
2024-03-08T16:06:49.355Z,52.42
2024-03-08T16:09:17.357Z,52.86
2024-03-08T16:11:46.005Z,52.76
2024-03-08T16:14:13.143Z,53.75
2024-03-08T16:16:40.741Z,54.69
2024-03-08T16:19:09.141Z,56.25
2024-03-08T16:21:37.455Z,57.17
2024-03-08T16:24:04.967Z,56.89
2024-03-08T16:26:36.343Z,57.27
2024-03-08T16:29:05.585Z,57.36
2024-03-08T16:31:32.672Z,57.35
2024-03-08T16:33:59.650Z,57.81
2024-03-08T16:36:28.272Z,57.81
2024-03-08T16:38:55.501Z,59.18
2024-03-08T16:41:22.941Z,58.77
2024-03-08T16:43:50.674Z,60.17
2024-03-08T16:46:17.978Z,61.02
2024-03-08T16:48:45.200Z,61.97
2024-03-08T16:51:12.891Z,62.30
2024-03-08T16:53:44.117Z,62.44
2024-03-08T16:56:14.352Z,62.63
2024-03-08T16:58:44.893Z,63.23
2024-03-08T17:01:12.536Z,63.33
2024-03-08T17:03:47.818Z,63.26
2024-03-08T17:06:24.673Z,63.71
2024-03-08T17:08:53.355Z,63.61
2024-03-08T17:11:22.162Z,62.91
2024-03-08T17:13:50.520Z,62.82
2024-03-08T17:16:17.746Z,62.06
2024-03-08T17:18:45.676Z,61.07
2024-03-08T17:21:15.021Z,60.91
2024-03-08T17:23:42.053Z,60.60
2024-03-08T17:26:09.768Z,61.24
2024-03-08T17:28:39.693Z,61.68
2024-03-08T17:31:08.978Z,62.15
2024-03-08T17:33:36.869Z,62.20
2024-03-08T17:36:08.443Z,64.53
2024-03-08T17:38:35.624Z,62.41
2024-03-08T17:41:02.699Z,62.61
2024-03-08T17:43:29.796Z,62.16
2024-03-08T17:45:57.005Z,61.85
2024-03-08T17:48:24.115Z,62.20
2024-03-08T17:50:51.362Z,62.78
2024-03-08T17:53:20.360Z,64.15
2024-03-08T17:55:47.629Z,65.11
2024-03-08T17:58:16.865Z,65.65
2024-03-08T18:00:45.443Z,65.79
2024-03-08T18:03:14.472Z,66.39
2024-03-08T18:05:45.208Z,66.53
2024-03-08T18:08:13.007Z,67.43
2024-03-08T18:10:43.047Z,67.09
2024-03-08T18:13:15.352Z,66.77
2024-03-08T18:15:43.524Z,69.37
2024-03-08T18:18:13.185Z,67.84
2024-03-08T18:20:49.462Z,68.31
2024-03-08T18:23:17.586Z,68.36
2024-03-08T18:25:48.464Z,67.47
2024-03-08T18:28:19.002Z,67.50
2024-03-08T18:30:50.342Z,67.07
2024-03-08T18:33:17.606Z,67.35
2024-03-08T18:35:45.640Z,68.76
2024-03-08T18:38:13.423Z,67.93
2024-03-08T18:40:46.793Z,68.43
2024-03-08T18:43:14.646Z,67.63
2024-03-08T18:45:43.672Z,67.24
2024-03-08T18:48:13.262Z,67.40
2024-03-08T18:50:40.929Z,68.42
2024-03-08T18:53:09.351Z,69.17
2024-03-08T18:55:36.733Z,68.95
2024-03-08T18:58:04.233Z,68.99
2024-03-08T19:00:36.231Z,68.50
2024-03-08T19:03:06.695Z,69.91
2024-03-08T19:05:34.121Z,69.29
2024-03-08T19:08:09.833Z,69.57
2024-03-08T19:10:39.809Z,69.41
2024-03-08T19:13:07.586Z,69.08
2024-03-08T19:15:35.401Z,66.67
2024-03-08T19:18:06.793Z,64.16
2024-03-08T19:20:37.328Z,64.70
2024-03-08T19:23:07.540Z,66.60
2024-03-08T19:25:36.193Z,66.52
2024-03-08T19:28:06.742Z,65.01
2024-03-08T19:30:37.857Z,63.00
2024-03-08T19:33:14.278Z,61.71
2024-03-08T19:35:42.545Z,62.76
2024-03-08T19:38:12.848Z,64.81
2024-03-08T19:40:43.241Z,65.28
2024-03-08T19:43:16.896Z,65.48
2024-03-08T19:45:45.408Z,62.28
2024-03-08T19:48:18.223Z,61.46
2024-03-08T19:50:47.279Z,60.98
2024-03-08T19:53:18.436Z,59.53
2024-03-08T19:55:54.920Z,59.49
2024-03-08T19:58:23.646Z,58.44
2024-03-08T20:00:51.255Z,57.29
2024-03-08T20:03:24.197Z,56.59
2024-03-08T20:05:55.257Z,57.75
2024-03-08T20:08:24.448Z,60.66
2024-03-08T20:10:52.388Z,62.96
2024-03-08T20:13:20.706Z,63.82
2024-03-08T20:15:54.916Z,62.65
2024-03-08T20:18:28.011Z,62.11
2024-03-08T20:20:58.853Z,62.01
2024-03-08T20:23:25.909Z,60.68
2024-03-08T20:25:53.529Z,59.44
2024-03-08T20:28:20.806Z,60.58
2024-03-08T20:30:48.516Z,62.03
2024-03-08T20:33:17.628Z,59.86
2024-03-08T20:35:51.695Z,60.54
2024-03-08T20:38:23.077Z,59.25
2024-03-08T20:40:52.208Z,58.14
2024-03-08T20:43:22.300Z,57.13
2024-03-08T20:45:50.885Z,58.96
2024-03-08T20:48:18.332Z,58.61
2024-03-08T20:50:45.442Z,58.27
2024-03-08T20:53:13.526Z,58.61
2024-03-08T20:55:41.329Z,58.39
2024-03-08T20:58:08.682Z,57.69
2024-03-08T21:00:35.753Z,57.98
2024-03-08T21:03:05.797Z,57.46
2024-03-08T21:05:33.814Z,58.04
2024-03-08T21:08:01.377Z,57.85
2024-03-08T21:10:32.096Z,56.82
2024-03-08T21:12:59.426Z,59.29
2024-03-08T21:15:29.128Z,61.69
2024-03-08T21:17:56.164Z,62.20
2024-03-08T21:20:23.552Z,63.17
2024-03-08T21:22:51.000Z,63.25
2024-03-08T21:25:23.117Z,64.10
2024-03-08T21:27:50.188Z,64.30
2024-03-08T21:30:26.257Z,63.86
2024-03-08T21:32:54.537Z,64.51
2024-03-08T21:35:21.496Z,65.63
2024-03-08T21:37:52.371Z,67.60
2024-03-08T21:40:23.109Z,67.27
2024-03-08T21:42:51.632Z,68.22
2024-03-08T21:45:18.530Z,68.50
2024-03-08T21:47:46.264Z,68.08
2024-03-08T21:50:16.847Z,69.49
2024-03-08T21:52:45.072Z,68.46
2024-03-08T21:55:13.221Z,68.55
2024-03-08T21:57:40.185Z,68.63
2024-03-08T22:00:14.636Z,69.22
2024-03-08T22:02:43.094Z,69.13
2024-03-08T22:05:11.754Z,70.05
2024-03-08T22:07:39.113Z,71.22
2024-03-08T22:10:06.645Z,70.93
2024-03-08T22:12:35.427Z,70.17
2024-03-08T22:15:03.049Z,70.84
2024-03-08T22:17:31.956Z,71.57
2024-03-08T22:20:05.202Z,72.57
2024-03-08T22:22:32.993Z,72.74
2024-03-08T22:25:00.143Z,72.70
2024-03-08T22:27:27.175Z,73.01
2024-03-08T22:29:56.703Z,72.81
2024-03-08T22:32:24.058Z,72.32
2024-03-08T22:34:51.864Z,72.36
2024-03-08T22:37:19.031Z,71.83
2024-03-08T22:39:45.964Z,71.98
2024-03-08T22:42:13.107Z,71.29
2024-03-08T22:44:40.140Z,70.93
2024-03-08T22:47:08.824Z,70.52
2024-03-08T22:49:35.897Z,70.12
2024-03-08T22:52:04.226Z,70.02
2024-03-08T22:54:31.293Z,69.15
2024-03-08T22:57:09.798Z,69.10
2024-03-08T22:59:36.980Z,69.48
2024-03-08T23:02:04.702Z,69.07
2024-03-08T23:04:31.992Z,69.09
2024-03-08T23:06:58.933Z,70.14
2024-03-08T23:09:25.867Z,68.36
2024-03-08T23:11:52.755Z,68.69
2024-03-08T23:14:19.789Z,70.45
2024-03-08T23:16:48.397Z,69.88
2024-03-08T23:19:15.437Z,71.19
2024-03-08T23:21:42.448Z,70.66
2024-03-08T23:24:09.612Z,70.40
2024-03-08T23:26:36.841Z,69.18
2024-03-08T23:29:04.813Z,69.27
2024-03-08T23:31:34.747Z,70.70
2024-03-08T23:34:01.888Z,72.70
2024-03-08T23:36:29.725Z,72.44
2024-03-08T23:38:56.865Z,73.00
2024-03-08T23:41:25.445Z,73.07
2024-03-08T23:43:53.448Z,74.46
2024-03-08T23:46:22.873Z,77.12
2024-03-08T23:48:49.859Z,75.66
2024-03-08T23:51:17.499Z,75.49
2024-03-08T23:53:44.383Z,76.16
2024-03-08T23:56:13.107Z,76.20
2024-03-08T23:58:40.804Z,78.02
